createdAt,value
2018-04-13T00:01:16.310Z,99498
2018-04-13T00:03:45.380Z,99494
2018-04-13T00:06:13.729Z,99498
2018-04-13T00:08:42.041Z,99500
2018-04-13T00:11:10.335Z,99500
2018-04-13T00:13:39.413Z,99501
2018-04-13T00:16:08.340Z,99498
2018-04-13T00:18:37.764Z,99496
2018-04-13T00:21:06.069Z,99496
2018-04-13T00:23:34.438Z,99496
2018-04-13T00:26:02.752Z,99501
2018-04-13T00:28:31.057Z,99501
2018-04-13T00:31:01.041Z,99502
2018-04-13T00:33:29.349Z,99508
2018-04-13T00:35:58.474Z,99501
2018-04-13T00:38:27.121Z,99502
2018-04-13T00:40:55.604Z,99501
2018-04-13T00:43:24.895Z,99514
2018-04-13T00:45:53.298Z,99513
2018-04-13T00:48:22.135Z,99514
2018-04-13T00:50:50.561Z,99522
2018-04-13T00:53:29.560Z,99522
2018-04-13T00:55:57.869Z,99521
2018-04-13T00:58:26.945Z,99517
2018-04-13T01:00:55.296Z,99524
2018-04-13T01:03:23.649Z,99528
2018-04-13T01:05:52.008Z,99530
2018-04-13T01:08:20.359Z,99533
2018-04-13T01:10:48.710Z,99528
2018-04-13T01:13:18.271Z,99527
2018-04-13T01:15:46.589Z,99531
2018-04-13T01:18:14.951Z,99531
2018-04-13T01:20:43.380Z,99530
2018-04-13T01:23:11.789Z,99533
2018-04-13T01:25:40.087Z,99534
2018-04-13T01:28:08.456Z,99536
2018-04-13T01:30:36.820Z,99537
2018-04-13T01:33:05.110Z,99532
2018-04-13T01:35:33.416Z,99531
2018-04-13T01:38:01.716Z,99528
2018-04-13T01:40:30.164Z,99531
2018-04-13T01:42:59.697Z,99535
2018-04-13T01:45:30.636Z,99533
2018-04-13T01:47:58.955Z,99529
2018-04-13T01:50:27.301Z,99532
2018-04-13T01:52:56.434Z,99535
2018-04-13T01:55:24.761Z,99528
2018-04-13T01:57:53.189Z,99529
2018-04-13T02:00:21.741Z,99527
2018-04-13T02:02:50.835Z,99536
2018-04-13T02:05:19.924Z,99532
2018-04-13T02:07:49.140Z,99533
2018-04-13T02:10:18.260Z,99536
2018-04-13T02:12:46.566Z,99534
2018-04-13T02:15:14.902Z,99532
2018-04-13T02:17:44.250Z,99536
2018-04-13T02:20:12.834Z,99541
2018-04-13T02:22:41.104Z,99542
2018-04-13T02:25:09.389Z,99545
2018-04-13T02:27:37.687Z,99554
2018-04-13T02:30:06.764Z,99544
2018-04-13T02:32:35.091Z,99551
2018-04-13T02:35:03.404Z,99554
2018-04-13T02:37:31.792Z,99559
2018-04-13T02:40:00.201Z,99557
2018-04-13T02:42:29.483Z,99556
2018-04-13T02:44:57.861Z,99554
2018-04-13T02:47:26.371Z,99560
2018-04-13T02:49:55.410Z,99562
2018-04-13T02:52:23.834Z,99566
2018-04-13T02:54:53.049Z,99570
2018-04-13T02:57:21.491Z,99572
2018-04-13T02:59:49.811Z,99570
2018-04-13T03:02:18.138Z,99569
2018-04-13T03:04:46.463Z,99577
2018-04-13T03:07:14.755Z,99572
2018-04-13T03:09:43.237Z,99575
2018-04-13T03:12:11.514Z,99568
2018-04-13T03:14:40.094Z,99574
2018-04-13T03:17:08.376Z,99575
2018-04-13T03:19:36.680Z,99571
2018-04-13T03:22:05.089Z,99576
2018-04-13T03:24:33.500Z,99582
2018-04-13T03:27:01.993Z,99583
2018-04-13T03:29:30.442Z,99585
2018-04-13T03:31:58.730Z,99590
2018-04-13T03:34:27.098Z,99584
2018-04-13T03:36:55.457Z,99592
2018-04-13T03:39:24.551Z,99588
2018-04-13T03:41:53.679Z,99582
2018-04-13T03:44:22.275Z,99585
2018-04-13T03:46:50.613Z,99587
2018-04-13T03:49:19.012Z,99591
2018-04-13T03:51:47.360Z,99588
2018-04-13T03:54:15.689Z,99586
2018-04-13T03:56:44.896Z,99585
2018-04-13T03:59:13.294Z,99592
2018-04-13T04:01:41.688Z,99588
2018-04-13T04:04:10.033Z,99592
2018-04-13T04:06:38.295Z,99599
2018-04-13T04:09:06.588Z,99609
2018-04-13T04:11:35.165Z,99610
2018-04-13T04:14:03.499Z,99615
2018-04-13T04:16:32.832Z,99621
2018-04-13T04:19:01.903Z,99617
2018-04-13T04:21:48.022Z,99622
2018-04-13T04:24:34.077Z,99627
2018-04-13T04:27:03.414Z,99636
2018-04-13T04:29:31.755Z,99636
2018-04-13T04:32:01.219Z,99642
2018-04-13T04:34:29.669Z,99642
2018-04-13T04:36:57.963Z,99641
2018-04-13T04:39:26.357Z,99640
2018-04-13T04:41:54.712Z,99638
2018-04-13T04:44:23.284Z,99644
2018-04-13T04:46:51.899Z,99651
2018-04-13T04:49:20.260Z,99651
2018-04-13T04:51:49.054Z,99654
2018-04-13T04:54:18.890Z,99660
2018-04-13T04:56:47.479Z,99661
2018-04-13T04:59:15.920Z,99664
2018-04-13T05:01:44.467Z,99666
2018-04-13T05:04:13.751Z,99667
2018-04-13T05:06:42.255Z,99674
2018-04-13T05:09:10.714Z,99681
2018-04-13T05:11:39.061Z,99679
2018-04-13T05:14:07.678Z,99680
2018-04-13T05:16:35.982Z,99679
2018-04-13T05:19:04.362Z,99676
2018-04-13T05:21:32.784Z,99685
2018-04-13T05:24:01.065Z,99688
2018-04-13T05:26:29.376Z,99691
2018-04-13T05:28:58.495Z,99701
2018-04-13T05:31:27.063Z,99705
2018-04-13T05:33:55.690Z,99709
2018-04-13T05:36:23.971Z,99705
2018-04-13T05:38:52.289Z,99709
2018-04-13T05:41:21.427Z,99707
2018-04-13T05:43:49.838Z,99713
2018-04-13T05:46:18.186Z,99717
2018-04-13T05:48:46.925Z,99722
2018-04-13T05:51:16.037Z,99721
2018-04-13T05:53:44.416Z,99729
2018-04-13T05:56:13.797Z,99727
2018-04-13T05:58:42.075Z,99726
2018-04-13T06:01:11.424Z,99722
2018-04-13T06:03:39.880Z,99715
2018-04-13T06:06:08.433Z,99711
2018-04-13T06:08:36.671Z,99710
2018-04-13T06:11:05.005Z,99706
2018-04-13T06:13:34.135Z,99710
2018-04-13T06:16:02.454Z,99711
2018-04-13T06:18:30.890Z,99719
2018-04-13T06:20:59.156Z,99723
2018-04-13T06:23:27.722Z,99727
2018-04-13T06:25:55.999Z,99728
2018-04-13T06:28:24.387Z,99732
2018-04-13T06:30:52.729Z,99731
2018-04-13T06:33:21.099Z,99735
2018-04-13T06:35:49.427Z,99742
2018-04-13T06:38:17.706Z,99752
2018-04-13T06:40:46.026Z,99754
2018-04-13T06:43:14.356Z,99764
2018-04-13T06:45:42.683Z,99771
2018-04-13T06:48:11.004Z,99784
2018-04-13T06:50:39.302Z,99789
2018-04-13T06:53:07.666Z,99789
2018-04-13T06:55:35.992Z,99792
2018-04-13T06:58:04.265Z,99787
2018-04-13T07:00:37.285Z,99759
2018-04-13T07:03:05.842Z,99748
2018-04-13T07:05:34.186Z,99737
2018-04-13T07:08:03.075Z,99742
2018-04-13T07:10:31.537Z,99745
2018-04-13T07:12:59.905Z,99751
2018-04-13T07:15:28.387Z,99746
2018-04-13T07:17:56.701Z,99741
2018-04-13T07:20:24.975Z,99739
2018-04-13T07:22:53.306Z,99741
2018-04-13T07:25:22.376Z,99736
2018-04-13T07:27:50.742Z,99738
2018-04-13T07:30:19.140Z,99747
2018-04-13T07:32:48.061Z,99747
2018-04-13T07:35:16.119Z,99761
2018-04-13T07:37:44.350Z,99763
2018-04-13T07:40:12.682Z,99765
2018-04-13T07:42:41.014Z,99763
2018-04-13T07:45:09.463Z,99764
2018-04-13T07:47:38.141Z,99770
2018-04-13T07:50:06.957Z,99774
2018-04-13T07:52:34.897Z,99770
2018-04-13T07:55:03.262Z,99771
2018-04-13T07:57:31.601Z,99775
2018-04-13T07:59:59.947Z,99774
2018-04-13T08:02:28.292Z,99773
2018-04-13T08:04:56.604Z,99776
2018-04-13T08:07:25.032Z,99774
2018-04-13T08:09:54.156Z,99778
2018-04-13T08:12:22.807Z,99777
2018-04-13T08:14:50.949Z,99783
2018-04-13T08:17:21.022Z,99788
2018-04-13T08:19:49.351Z,99785
2018-04-13T08:22:17.669Z,99781
2018-04-13T08:24:45.952Z,99780
2018-04-13T08:27:14.265Z,99779
2018-04-13T08:29:42.597Z,99780
2018-04-13T08:32:11.689Z,99783
2018-04-13T08:34:40.778Z,99786
2018-04-13T08:37:09.875Z,99791
2018-04-13T08:39:39.067Z,99792
2018-04-13T08:42:07.387Z,99790
2018-04-13T08:44:35.752Z,99792
2018-04-13T08:47:04.089Z,99797
2018-04-13T08:49:33.672Z,99798
2018-04-13T08:52:02.402Z,99802
2018-04-13T08:54:31.484Z,99805
2018-04-13T08:57:00.531Z,99797
2018-04-13T08:59:29.048Z,99804
2018-04-13T09:01:57.373Z,99811
2018-04-13T09:04:25.673Z,99824
2018-04-13T09:06:54.005Z,99823
2018-04-13T09:09:22.398Z,99826
2018-04-13T09:11:50.797Z,99826
2018-04-13T09:14:19.130Z,99828
2018-04-13T09:16:48.422Z,99825
2018-04-13T09:19:17.520Z,99827
2018-04-13T09:21:47.190Z,99829
2018-04-13T09:24:15.603Z,99833
2018-04-13T09:26:43.937Z,99834
2018-04-13T09:29:12.257Z,99835
2018-04-13T09:31:41.361Z,99830
2018-04-13T09:34:10.537Z,99822
2018-04-13T09:36:38.884Z,99826
2018-04-13T09:39:07.166Z,99831
2018-04-13T09:41:36.258Z,99827
2018-04-13T09:44:04.603Z,99834
2018-04-13T09:46:32.943Z,99835
2018-04-13T09:49:01.429Z,99834
2018-04-13T09:51:29.880Z,99842
2018-04-13T09:53:58.352Z,99834
2018-04-13T09:56:26.735Z,99840
2018-04-13T09:58:55.077Z,99837
2018-04-13T10:01:23.594Z,99832
2018-04-13T10:03:57.667Z,99827
2018-04-13T10:06:27.247Z,99830
2018-04-13T10:08:56.392Z,99831
2018-04-13T10:11:24.734Z,99831
2018-04-13T10:13:53.878Z,99835
2018-04-13T10:16:22.437Z,99834
2018-04-13T10:18:50.768Z,99842
2018-04-13T10:21:19.102Z,99840
2018-04-13T10:23:47.458Z,99844
2018-04-13T10:26:23.358Z,99852
2018-04-13T10:28:51.695Z,99851
2018-04-13T10:31:20.044Z,99862
2018-04-13T10:33:48.378Z,99864
2018-04-13T10:36:16.958Z,99869
2018-04-13T10:38:45.281Z,99874
2018-04-13T10:41:13.647Z,99874
2018-04-13T10:43:42.054Z,99877
2018-04-13T10:46:11.165Z,99880
2018-04-13T10:48:39.632Z,99889
2018-04-13T10:51:08.761Z,99895
2018-04-13T10:53:37.053Z,99898
2018-04-13T10:56:05.358Z,99902
2018-04-13T10:58:34.048Z,99914
2018-04-13T11:01:02.373Z,99909
2018-04-13T11:03:30.689Z,99906
2018-04-13T11:05:59.044Z,99913
2018-04-13T11:08:27.389Z,99913
2018-04-13T11:10:55.768Z,99910
2018-04-13T11:13:24.064Z,99926
2018-04-13T11:15:52.483Z,99916
2018-04-13T11:18:21.142Z,99919
2018-04-13T11:20:49.469Z,99927
2018-04-13T11:23:18.569Z,99934
2018-04-13T11:25:47.697Z,99926
2018-04-13T11:28:16.160Z,99932
2018-04-13T11:30:44.501Z,99937
2018-04-13T11:33:12.885Z,99934
2018-04-13T11:35:41.435Z,99939
2018-04-13T11:38:09.835Z,99946
2018-04-13T11:40:38.215Z,99940
2018-04-13T11:43:06.547Z,99944
2018-04-13T11:45:34.915Z,99940
2018-04-13T11:48:03.252Z,99936
2018-04-13T11:50:31.584Z,99944
2018-04-13T11:52:59.941Z,99945
2018-04-13T11:55:28.607Z,99946
2018-04-13T11:57:57.765Z,99948
2018-04-13T12:00:26.163Z,99961
2018-04-13T12:02:54.540Z,99956
2018-04-13T12:05:24.118Z,99959
2018-04-13T12:07:52.691Z,99965
2018-04-13T12:10:21.015Z,99964
2018-04-13T12:12:49.352Z,99967
2018-04-13T12:15:17.724Z,99973
2018-04-13T12:17:46.021Z,99979
2018-04-13T12:20:14.357Z,99976
2018-04-13T12:22:42.857Z,99987
2018-04-13T12:25:11.388Z,99989
2018-04-13T12:27:39.759Z,99989
2018-04-13T12:30:08.113Z,99987
2018-04-13T12:32:36.418Z,99992
2018-04-13T12:35:06.478Z,99991
2018-04-13T12:37:34.778Z,99989
2018-04-13T12:40:03.231Z,99992
2018-04-13T12:42:31.743Z,99979
2018-04-13T12:45:00.065Z,99976
2018-04-13T12:47:28.553Z,99976
2018-04-13T12:49:57.663Z,99982
2018-04-13T12:52:26.130Z,99984
2018-04-13T12:54:55.590Z,99987
2018-04-13T12:57:23.768Z,99994
2018-04-13T12:59:52.205Z,99987
2018-04-13T13:02:22.028Z,99993
2018-04-13T13:04:50.366Z,99998
2018-04-13T13:07:19.514Z,99993
2018-04-13T13:09:47.859Z,99996
2018-04-13T13:12:16.358Z,99997
2018-04-13T13:14:44.716Z,99997
2018-04-13T13:17:14.147Z,99997
2018-04-13T13:19:42.629Z,100006
2018-04-13T13:22:10.949Z,100006
2018-04-13T13:24:39.442Z,100012
2018-04-13T13:27:08.587Z,100019
2018-04-13T13:29:37.044Z,100011
2018-04-13T13:32:05.429Z,100016
2018-04-13T13:34:34.883Z,100021
2018-04-13T13:37:03.295Z,100021
2018-04-13T13:39:32.464Z,100016
2018-04-13T13:42:00.830Z,100016
2018-04-13T13:44:29.185Z,100014
2018-04-13T13:46:57.524Z,100030
2018-04-13T13:49:26.669Z,100022
2018-04-13T13:51:55.033Z,100035
2018-04-13T13:54:23.394Z,100043
2018-04-13T13:56:51.739Z,100043
2018-04-13T13:59:20.905Z,100055
2018-04-13T14:01:49.370Z,100055
2018-04-13T14:04:18.733Z,100053
2018-04-13T14:06:48.014Z,100059
2018-04-13T14:09:16.343Z,100059
2018-04-13T14:11:44.720Z,100061
2018-04-13T14:14:13.172Z,100066
2018-04-13T14:16:41.491Z,100074
2018-04-13T14:19:09.860Z,100081
2018-04-13T14:21:38.234Z,100091
2018-04-13T14:24:06.671Z,100095
2018-04-13T14:26:35.829Z,100101
2018-04-13T14:29:04.181Z,100110
2018-04-13T14:31:32.551Z,100105
2018-04-13T14:34:00.914Z,100106
2018-04-13T14:36:30.108Z,100099
2018-04-13T14:39:00.320Z,100103
2018-04-13T14:41:29.409Z,100106
2018-04-13T14:43:57.760Z,100113
2018-04-13T14:46:26.088Z,100117
2018-04-13T14:48:54.534Z,100118
2018-04-13T14:51:22.886Z,100115
2018-04-13T14:53:51.382Z,100117
2018-04-13T14:56:20.530Z,100120
2018-04-13T14:58:48.979Z,100121
2018-04-13T15:01:17.314Z,100124
2018-04-13T15:03:45.691Z,100120
2018-04-13T15:06:14.359Z,100125
2018-04-13T15:08:42.985Z,100126
2018-04-13T15:11:11.441Z,100127
2018-04-13T15:13:39.884Z,100126
2018-04-13T15:16:08.373Z,100132
2018-04-13T15:18:36.768Z,100135
2018-04-13T15:21:05.160Z,100137
2018-04-13T15:23:33.949Z,100136
2018-04-13T15:26:02.264Z,100143
2018-04-13T15:28:31.078Z,100144
2018-04-13T15:30:59.410Z,100142
2018-04-13T15:33:27.708Z,100152
2018-04-13T15:35:56.140Z,100152
2018-04-13T15:38:24.644Z,100151
2018-04-13T15:40:53.208Z,100154
2018-04-13T15:43:21.537Z,100150
2018-04-13T15:45:49.975Z,100153
2018-04-13T15:48:18.488Z,100145
2018-04-13T15:50:48.033Z,100150
2018-04-13T15:53:16.388Z,100155
2018-04-13T15:55:45.550Z,100159
2018-04-13T15:58:13.905Z,100150
2018-04-13T16:00:42.270Z,100160
2018-04-13T16:03:11.446Z,100165
2018-04-13T16:05:40.615Z,100168
2018-04-13T16:08:08.968Z,100173
2018-04-13T16:10:37.305Z,100175
2018-04-13T16:13:05.718Z,100185
2018-04-13T16:15:34.157Z,100179
2018-04-13T16:18:02.491Z,100186
2018-04-13T16:20:30.911Z,100195
2018-04-13T16:22:59.327Z,100198
2018-04-13T16:25:27.676Z,100198
2018-04-13T16:27:56.240Z,100195
2018-04-13T16:30:25.398Z,100196
2018-04-13T16:32:53.725Z,100201
2018-04-13T16:35:22.239Z,100194
2018-04-13T16:37:50.687Z,100196
2018-04-13T16:40:19.901Z,100194
2018-04-13T16:42:49.417Z,100207
2018-04-13T16:45:17.780Z,100214
2018-04-13T16:47:46.268Z,100213
2018-04-13T16:50:14.619Z,100217
2018-04-13T16:52:43.956Z,100213
2018-04-13T16:55:12.409Z,100219
2018-04-13T16:57:41.524Z,100220
2018-04-13T17:00:09.989Z,100227
2018-04-13T17:02:38.469Z,100224
2018-04-13T17:05:06.983Z,100223
2018-04-13T17:07:35.405Z,100237
2018-04-13T17:10:03.699Z,100233
2018-04-13T17:12:32.845Z,100228
2018-04-13T17:15:02.579Z,100229
2018-04-13T17:17:31.233Z,100230
2018-04-13T17:19:59.593Z,100235
2018-04-13T17:22:27.961Z,100237
2018-04-13T17:24:56.370Z,100239
2018-04-13T17:27:24.818Z,100242
2018-04-13T17:29:54.386Z,100243
2018-04-13T17:32:22.931Z,100251
2018-04-13T17:34:52.152Z,100254
2018-04-13T17:37:20.499Z,100254
2018-04-13T17:39:49.080Z,100267
2018-04-13T17:42:17.546Z,100262
2018-04-13T17:44:45.920Z,100273
2018-04-13T17:47:15.389Z,100277
2018-04-13T17:49:43.783Z,100276
2018-04-13T17:52:12.887Z,100277
2018-04-13T17:54:41.521Z,100278
2018-04-13T17:57:10.030Z,100282
2018-04-13T17:59:39.129Z,100289
2018-04-13T18:02:07.455Z,100298
2018-04-13T18:04:35.794Z,100298
2018-04-13T18:07:05.138Z,100302
2018-04-13T18:09:33.590Z,100304
2018-04-13T18:12:02.751Z,100306
2018-04-13T18:14:31.217Z,100308
2018-04-13T18:16:59.615Z,100303
2018-04-13T18:19:28.014Z,100313
2018-04-13T18:21:57.268Z,100309
2018-04-13T18:24:25.658Z,100318
2018-04-13T18:26:54.000Z,100318
2018-04-13T18:29:22.408Z,100328
2018-04-13T18:31:50.861Z,100332
2018-04-13T18:34:19.392Z,100335
2018-04-13T18:36:47.717Z,100336
2018-04-13T18:39:16.114Z,100339
2018-04-13T18:41:44.534Z,100346
2018-04-13T18:44:13.475Z,100352
2018-04-13T18:46:41.887Z,100355
2018-04-13T18:49:10.340Z,100359
2018-04-13T18:51:38.831Z,100360
2018-04-13T18:54:07.343Z,100358
2018-04-13T18:56:36.816Z,100362
2018-04-13T18:59:05.311Z,100366
2018-04-13T19:01:33.753Z,100371
2018-04-13T19:04:02.205Z,100374
2018-04-13T19:06:31.603Z,100376
2018-04-13T19:08:59.986Z,100382
2018-04-13T19:11:29.191Z,100386
2018-04-13T19:13:58.446Z,100389
2018-04-13T19:16:27.051Z,100390
2018-04-13T19:18:55.613Z,100402
2018-04-13T19:21:24.088Z,100406
2018-04-13T19:23:52.523Z,100405
2018-04-13T19:26:21.786Z,100410
2018-04-13T19:28:50.205Z,100405
2018-04-13T19:31:19.383Z,100410
2018-04-13T19:33:47.794Z,100411
2018-04-13T19:36:16.525Z,100408
2018-04-13T19:38:44.915Z,100419
2018-04-13T19:41:14.229Z,100424
2018-04-13T19:43:42.627Z,100425
2018-04-13T19:46:11.781Z,100427
2018-04-13T19:48:40.100Z,100432
2018-04-13T19:51:09.190Z,100428
2018-04-13T19:53:39.490Z,100425
2018-04-13T19:56:07.862Z,100430
2018-04-13T19:58:36.356Z,100437
2018-04-13T20:01:05.505Z,100434
2018-04-13T20:03:33.965Z,100434
2018-04-13T20:06:02.350Z,100435
2018-04-13T20:08:30.703Z,100444
2018-04-13T20:10:59.877Z,100441
2018-04-13T20:13:28.420Z,100447
2018-04-13T20:15:56.946Z,100442
2018-04-13T20:18:26.031Z,100436
2018-04-13T20:20:55.462Z,100444
2018-04-13T20:23:25.576Z,100447
2018-04-13T20:25:53.965Z,100449
2018-04-13T20:28:23.097Z,100450
2018-04-13T20:30:51.593Z,100451
2018-04-13T20:33:19.980Z,100454
2018-04-13T20:35:48.436Z,100452
2018-04-13T20:38:17.023Z,100453
2018-04-13T20:40:45.425Z,100454
2018-04-13T20:43:13.783Z,100456
2018-04-13T20:45:42.122Z,100458
2018-04-13T20:48:11.341Z,100462
2018-04-13T20:50:39.798Z,100463
2018-04-13T20:53:09.011Z,100463
2018-04-13T20:55:38.376Z,100469
2018-04-13T20:58:06.732Z,100472
2018-04-13T21:00:35.115Z,100482
2018-04-13T21:03:03.643Z,100483
2018-04-13T21:05:32.007Z,100490
2018-04-13T21:08:01.184Z,100493
2018-04-13T21:10:32.757Z,100496
2018-04-13T21:13:01.504Z,100495
2018-04-13T21:15:29.935Z,100497
2018-04-13T21:17:59.053Z,100500
2018-04-13T21:20:27.551Z,100503
2018-04-13T21:22:56.166Z,100498
2018-04-13T21:25:25.516Z,100501
2018-04-13T21:27:54.386Z,100499
2018-04-13T21:30:23.584Z,100504
2018-04-13T21:32:54.099Z,100508
2018-04-13T21:35:22.623Z,100517
2018-04-13T21:37:51.018Z,100519
2018-04-13T21:40:19.376Z,100508
2018-04-13T21:42:47.837Z,100527
2018-04-13T21:45:16.226Z,100521
2018-04-13T21:47:44.796Z,100526
2018-04-13T21:50:13.262Z,100520
2018-04-13T21:52:42.365Z,100522
2018-04-13T21:55:10.803Z,100524
2018-04-13T21:57:39.309Z,100525
2018-04-13T22:00:09.720Z,100530
2018-04-13T22:02:38.087Z,100526
2018-04-13T22:05:06.511Z,100534
2018-04-13T22:07:34.929Z,100531
2018-04-13T22:10:03.497Z,100538
2018-04-13T22:12:49.663Z,100539
2018-04-13T22:15:26.486Z,100541
2018-04-13T22:17:54.836Z,100546
2018-04-13T22:20:23.993Z,100545
2018-04-13T22:22:52.432Z,100547
2018-04-13T22:25:20.822Z,100543
2018-04-13T22:27:49.216Z,100540
2018-04-13T22:30:18.735Z,100532
2018-04-13T22:32:47.141Z,100548
2018-04-13T22:35:16.411Z,100551
2018-04-13T22:37:44.785Z,100555
2018-04-13T22:40:13.178Z,100551
2018-04-13T22:42:41.593Z,100554
2018-04-13T22:45:10.718Z,100551
2018-04-13T22:47:39.268Z,100559
2018-04-13T22:50:07.662Z,100564
2018-04-13T22:52:36.061Z,100575
2018-04-13T22:55:04.406Z,100569
2018-04-13T22:57:33.551Z,100564
2018-04-13T23:00:01.873Z,100564
2018-04-13T23:02:32.074Z,100566
2018-04-13T23:05:00.510Z,100569
2018-04-13T23:07:29.019Z,100574
2018-04-13T23:09:57.642Z,100574
2018-04-13T23:12:26.816Z,100575
2018-04-13T23:14:55.225Z,100576
2018-04-13T23:17:23.516Z,100585
2018-04-13T23:19:51.827Z,100588
2018-04-13T23:22:38.218Z,100582
2018-04-13T23:25:06.578Z,100591
2018-04-13T23:27:34.916Z,100589
2018-04-13T23:30:04.032Z,100599
2018-04-13T23:32:32.354Z,100598
2018-04-13T23:35:00.706Z,100606
2018-04-13T23:37:29.107Z,100609
2018-04-13T23:39:57.436Z,100609
2018-04-13T23:42:26.646Z,100612
2018-04-13T23:44:54.976Z,100619
2018-04-13T23:47:23.331Z,100618
2018-04-13T23:49:51.657Z,100618
2018-04-13T23:52:22.070Z,100619
2018-04-13T23:54:50.407Z,100619
2018-04-13T23:57:18.837Z,100622
2018-04-13T23:59:47.931Z,100622
